Time;durP1;ratioP1;P1;durP2;ratioP2;P2;SDS_P1;SDS_P2;PMS_P1;PMS_P2;Temp;Humidity;BMP_temperature;BMP_pressure;BME280_temperature;BME280_humidity;BME280_pressure;Samples;Min_cycle;Max_cycle;Signal;HPM_P1;HPM_P2
2022/12/27 00:00:21;;;;;;;8.65;2.72;;;5.20;99.90;;;;;;5033167;28;20861;-79
2022/12/27 00:02:47;;;;;;;10.77;2.53;;;5.20;99.90;;;;;;5032890;28;20238;-75
2022/12/27 00:05:14;;;;;;;12.13;2.50;;;5.20;99.90;;;;;;5039061;28;20187;-75
2022/12/27 00:07:41;;;;;;;11.63;2.30;;;5.20;99.90;;;;;;5045085;28;20186;-75
2022/12/27 00:10:08;;;;;;;15.63;2.10;;;5.20;99.90;;;;;;5031524;28;20212;-78
2022/12/27 00:12:34;;;;;;;10.07;2.00;;;5.30;99.90;;;;;;5034680;28;20203;-75
2022/12/27 00:15:00;;;;;;;10.15;2.25;;;5.20;99.90;;;;;;5032797;28;20190;-78
2022/12/27 00:17:26;;;;;;;12.90;2.20;;;5.20;99.90;;;;;;5027348;28;20184;-81
2022/12/27 00:19:52;;;;;;;16.80;2.25;;;5.20;99.90;;;;;;5021008;28;20191;-76
2022/12/27 00:22:18;;;;;;;9.15;2.05;;;5.20;99.90;;;;;;5021082;28;20184;-75
2022/12/27 00:24:45;;;;;;;12.10;2.15;;;5.20;99.90;;;;;;5028225;28;20176;-76
2022/12/27 00:27:11;;;;;;;14.55;2.15;;;5.20;99.90;;;;;;5042848;28;20190;-76
2022/12/27 00:29:37;;;;;;;14.38;2.60;;;5.20;99.90;;;;;;5034756;28;20563;-77
2022/12/27 00:32:03;;;;;;;8.73;2.45;;;5.20;99.90;;;;;;5040002;28;20718;-77
2022/12/27 00:34:28;;;;;;;12.48;2.42;;;5.30;99.90;;;;;;5040462;28;20184;-77
2022/12/27 00:36:54;;;;;;;12.20;2.17;;;5.20;99.90;;;;;;5059688;28;20188;-77
2022/12/27 00:39:20;;;;;;;11.18;2.03;;;5.20;99.90;;;;;;5025796;28;20222;-76
2022/12/27 00:41:45;;;;;;;7.47;1.90;;;5.30;99.90;;;;;;5044652;28;20279;-82
2022/12/27 00:44:11;;;;;;;14.95;2.13;;;5.20;99.90;;;;;;5026918;28;20188;-77
2022/12/27 00:46:37;;;;;;;11.15;2.10;;;5.20;99.90;;;;;;5035070;28;20195;-80
2022/12/27 00:49:03;;;;;;;6.10;1.92;;;5.20;99.90;;;;;;5028057;28;20192;-77
2022/12/27 00:51:29;;;;;;;9.85;2.35;;;5.30;99.90;;;;;;5015559;28;20188;-78
2022/12/27 00:53:55;;;;;;;8.82;2.38;;;5.30;99.90;;;;;;5017933;28;20211;-77
2022/12/27 00:56:24;;;;;;;9.73;2.30;;;5.30;99.90;;;;;;5031824;28;20654;-77
2022/12/27 00:59:01;;;;;;;14.80;2.15;;;5.30;99.90;;;;;;5027438;28;20180;-77
2022/12/27 01:01:29;;;;;;;9.60;2.15;;;5.30;99.90;;;;;;5027171;28;20219;-76
2022/12/27 01:03:56;;;;;;;11.00;2.38;;;5.30;99.90;;;;;;5042981;28;20184;-77
2022/12/27 01:06:24;;;;;;;10.82;2.05;;;5.30;99.90;;;;;;5035496;28;20184;-77
2022/12/27 01:08:50;;;;;;;15.20;2.65;;;5.30;99.90;;;;;;5029615;28;20195;-77
2022/12/27 01:11:17;;;;;;;6.97;1.80;;;5.30;99.90;;;;;;5033487;28;20183;-77
2022/12/27 01:13:44;;;;;;;13.88;2.53;;;5.30;99.90;;;;;;5063871;28;20778;-77
2022/12/27 01:16:18;;;;;;;14.05;2.47;;;5.30;99.90;;;;;;5031335;28;20194;-76
2022/12/27 01:18:45;;;;;;;17.70;2.45;;;5.30;99.90;;;;;;5025619;28;20206;-77
2022/12/27 01:21:14;;;;;;;16.65;2.65;;;5.30;99.90;;;;;;5031448;28;20274;-77
2022/12/27 01:23:40;;;;;;;10.43;2.00;;;5.30;99.90;;;;;;5044407;28;20571;-77
2022/12/27 01:26:09;;;;;;;11.90;2.00;;;5.30;99.90;;;;;;5031681;28;20188;-76
2022/12/27 01:28:36;;;;;;;10.38;1.73;;;5.30;99.90;;;;;;5026936;28;20176;-77
2022/12/27 01:31:07;;;;;;;11.40;2.13;;;5.30;99.90;;;;;;5064559;28;20188;-77
2022/12/27 01:33:33;;;;;;;10.93;2.25;;;5.40;99.90;;;;;;5042805;28;20568;-77
2022/12/27 01:36:21;;;;;;;12.27;2.33;;;5.40;99.90;;;;;;5027656;28;20188;-78
2022/12/27 01:38:47;;;;;;;8.95;2.10;;;5.40;99.90;;;;;;5031022;28;20611;-77
2022/12/27 01:47:30;;;;;;;17.10;2.15;;;5.50;99.90;;;;;;5032941;28;20241;-75
2022/12/27 01:50:11;;;;;;;15.43;2.67;;;5.60;99.90;;;;;;5024344;28;20253;-75
2022/12/27 01:53:03;;;;;;;14.95;2.33;;;5.60;99.90;;;;;;5025170;28;20196;-75
2022/12/27 01:55:39;;;;;;;15.30;2.10;;;5.70;99.90;;;;;;5028351;28;20543;-74
2022/12/27 01:58:16;;;;;;;12.23;2.25;;;5.70;99.90;;;;;;5037226;28;20183;-74
2022/12/27 02:00:46;;;;;;;14.10;2.25;;;5.70;99.90;;;;;;5053419;28;20187;-79
2022/12/27 02:03:16;;;;;;;6.80;1.75;;;5.80;99.90;;;;;;5026146;28;20270;-75
2022/12/27 02:05:42;;;;;;;7.32;1.67;;;5.80;99.90;;;;;;5034560;28;20187;-75
2022/12/27 02:08:27;;;;;;;18.90;2.30;;;5.90;99.90;;;;;;5022116;28;20185;-75
2022/12/27 02:10:56;;;;;;;11.63;2.10;;;5.90;99.90;;;;;;5027573;28;20274;-75
2022/12/27 02:13:22;;;;;;;10.40;1.83;;;5.80;99.90;;;;;;5032582;28;20204;-76
2022/12/27 02:15:48;;;;;;;7.15;1.83;;;5.80;99.90;;;;;;5020042;28;20191;-75
2022/12/27 02:18:14;;;;;;;10.32;2.17;;;5.80;99.90;;;;;;5031805;28;20193;-75
2022/12/27 02:21:03;;;;;;;9.02;1.75;;;5.80;99.90;;;;;;5034141;28;20175;-75
2022/12/27 02:24:05;;;;;;;7.63;1.90;;;5.90;99.90;;;;;;4978381;28;20200;-76
2022/12/27 02:27:25;;;;;;;7.55;1.75;;;5.80;99.90;;;;;;5028701;28;20187;-77
2022/12/27 02:30:05;;;;;;;8.40;2.30;;;5.90;99.90;;;;;;5009254;28;20208;-75
2022/12/27 02:32:44;;;;;;;8.90;1.80;;;5.90;99.90;;;;;;5015242;28;20659;-80
2022/12/27 02:35:21;;;;;;;8.70;2.10;;;5.90;99.90;;;;;;5023809;28;20184;-75
2022/12/27 02:38:05;;;;;;;11.27;1.90;;;5.90;99.90;;;;;;5035880;28;20235;-78
2022/12/27 02:55:34;;;;;;;10.93;2.30;;;5.90;99.90;;;;;;5030982;28;20194;-75
2022/12/27 02:58:21;;;;;;;16.30;2.60;;;5.80;99.90;;;;;;5031191;28;20195;-75
2022/12/27 03:04:08;;;;;;;11.73;1.83;;;5.80;99.90;;;;;;5032061;28;20195;-75
2022/12/27 03:07:01;;;;;;;13.35;2.22;;;5.90;99.90;;;;;;5029183;28;20184;-75
2022/12/27 03:16:05;;;;;;;12.32;2.30;;;5.90;99.90;;;;;;5035953;28;20192;-75
2022/12/27 03:18:50;;;;;;;11.48;2.00;;;5.80;99.90;;;;;;5009928;28;20242;-75
2022/12/27 03:25:26;;;;;;;10.32;2.00;;;5.80;99.90;;;;;;5035818;28;20226;-74
2022/12/27 03:27:18;;;;;;;15.73;2.28;;;5.80;99.90;;;;;;5031897;28;20184;-77
2022/12/27 03:38:50;;;;;;;13.10;2.30;;;5.90;99.90;;;;;;5039083;28;20179;-75
2022/12/27 03:44:23;;;;;;;10.38;2.15;;;5.90;99.90;;;;;;5025634;28;20241;-76
2022/12/27 03:46:56;;;;;;;14.13;2.03;;;5.90;99.90;;;;;;5059211;28;20202;-77
2022/12/27 03:49:37;;;;;;;16.23;2.30;;;5.90;99.90;;;;;;5032200;28;20179;-75
2022/12/27 03:52:08;;;;;;;15.05;2.03;;;5.90;99.90;;;;;;5035503;28;20180;-76
2022/12/27 03:54:41;;;;;;;8.77;1.98;;;5.90;99.90;;;;;;5031984;28;20528;-75
2022/12/27 03:57:12;;;;;;;8.73;2.00;;;5.90;99.90;;;;;;5029303;28;20183;-75
2022/12/27 03:59:38;;;;;;;11.27;2.30;;;5.90;99.90;;;;;;5043517;28;20222;-75
2022/12/27 04:02:05;;;;;;;9.15;2.47;;;5.90;99.90;;;;;;5032872;28;20243;-75
2022/12/27 04:04:32;;;;;;;9.45;2.25;;;5.90;99.90;;;;;;5035423;28;20554;-75
2022/12/27 04:06:58;;;;;;;9.38;2.05;;;5.90;99.90;;;;;;5056262;28;22401;-75
2022/12/27 04:36:48;;;;;;;15.13;2.40;;;5.70;99.90;;;;;;5044960;28;20183;-75
2022/12/27 04:39:14;;;;;;;15.27;2.28;;;5.70;99.90;;;;;;5028365;28;20242;-78
2022/12/27 04:55:29;;;;;;;7.55;2.08;;;5.70;99.90;;;;;;5041986;28;20604;-76
2022/12/27 04:57:56;;;;;;;10.93;2.22;;;5.70;99.90;;;;;;5046585;28;20176;-75
2022/12/27 05:03:18;;;;;;;8.75;2.08;;;5.70;99.90;;;;;;5023681;28;20359;-75
2022/12/27 05:05:45;;;;;;;11.68;2.50;;;5.70;99.90;;;;;;5037088;28;20183;-77
2022/12/27 05:14:00;;;;;;;7.03;2.08;;;5.70;99.90;;;;;;5027647;28;20215;-74
2022/12/27 05:16:41;;;;;;;14.13;2.45;;;5.70;99.90;;;;;;5030585;28;20195;-79
2022/12/27 05:19:09;;;;;;;14.70;2.45;;;5.60;99.90;;;;;;5048510;28;20187;-79
2022/12/27 05:25:33;;;;;;;11.70;2.50;;;5.60;99.90;;;;;;5046596;28;20283;-77
2022/12/27 05:27:10;;;;;;;14.32;2.97;;;5.60;99.90;;;;;;5024392;28;20184;-76
2022/12/27 05:29:35;;;;;;;16.33;3.53;;;5.60;99.90;;;;;;5026712;28;20182;-76
2022/12/27 05:32:01;;;;;;;11.82;2.55;;;5.60;99.90;;;;;;5031636;28;20186;-76
2022/12/27 05:34:27;;;;;;;12.85;2.65;;;5.60;99.90;;;;;;5027950;28;20259;-77
2022/12/27 05:36:53;;;;;;;12.15;2.78;;;5.50;99.90;;;;;;5032221;28;20214;-76
2022/12/27 05:39:18;;;;;;;17.42;2.72;;;5.50;99.90;;;;;;5039181;28;20188;-77
2022/12/27 05:41:44;;;;;;;15.15;2.60;;;5.50;99.90;;;;;;5032299;28;20180;-76
2022/12/27 05:44:10;;;;;;;11.65;2.00;;;5.50;99.90;;;;;;5031506;28;20191;-80
2022/12/27 05:46:35;;;;;;;11.98;2.60;;;5.40;99.90;;;;;;5040931;28;20184;-76
2022/12/27 05:49:01;;;;;;;13.85;2.60;;;5.50;99.90;;;;;;5016632;28;20215;-78
2022/12/27 05:51:27;;;;;;;10.75;2.45;;;5.50;99.90;;;;;;5059796;28;20659;-76
2022/12/27 05:53:53;;;;;;;10.05;2.53;;;5.50;99.90;;;;;;5031086;28;20196;-78
2022/12/27 05:56:20;;;;;;;14.63;2.58;;;5.50;99.90;;;;;;5028279;28;20632;-76
2022/12/27 05:58:46;;;;;;;15.88;3.00;;;5.50;99.90;;;;;;5022952;28;20271;-76
2022/12/27 06:01:15;;;;;;;15.40;2.33;;;5.40;99.90;;;;;;5026311;28;20191;-77
2022/12/27 06:03:41;;;;;;;14.30;2.50;;;5.40;99.90;;;;;;5030802;28;20286;-82
2022/12/27 06:06:07;;;;;;;13.63;2.60;;;5.40;99.90;;;;;;5052787;28;20192;-76
2022/12/27 06:08:33;;;;;;;12.90;2.30;;;5.40;99.90;;;;;;5026405;28;20195;-76
2022/12/27 06:11:07;;;;;;;13.57;2.50;;;5.40;99.90;;;;;;5032095;28;20705;-76
2022/12/27 06:13:33;;;;;;;12.30;2.42;;;5.40;99.90;;;;;;5022893;28;20287;-77
2022/12/27 06:16:01;;;;;;;11.05;2.83;;;5.30;99.90;;;;;;5032043;28;20187;-77
2022/12/27 06:18:31;;;;;;;15.88;2.60;;;5.30;99.90;;;;;;5032575;28;20192;-77
2022/12/27 06:21:07;;;;;;;13.43;2.47;;;5.30;99.90;;;;;;5030749;28;20250;-80
2022/12/27 06:23:34;;;;;;;10.57;2.38;;;5.30;99.90;;;;;;5016677;28;20187;-78
2022/12/27 06:26:07;;;;;;;13.13;2.45;;;5.30;99.90;;;;;;5029763;28;20195;-76
2022/12/27 06:28:33;;;;;;;17.90;2.67;;;5.30;99.90;;;;;;5031307;28;20195;-77
2022/12/27 06:31:00;;;;;;;9.93;2.40;;;5.30;99.90;;;;;;5029567;28;20183;-75
2022/12/27 06:33:27;;;;;;;13.93;2.30;;;5.30;99.90;;;;;;5059367;28;20302;-76
2022/12/27 06:35:53;;;;;;;14.05;2.47;;;5.30;99.90;;;;;;5026364;28;20188;-75
2022/12/27 06:38:18;;;;;;;13.80;2.70;;;5.20;99.90;;;;;;5031794;28;20192;-79
2022/12/27 06:40:45;;;;;;;11.65;2.40;;;5.20;99.90;;;;;;5041902;28;20196;-75
2022/12/27 06:43:11;;;;;;;18.33;3.03;;;5.20;99.90;;;;;;5016815;28;20188;-77
2022/12/27 06:45:37;;;;;;;15.30;2.50;;;5.20;99.90;;;;;;5028953;28;20651;-75
2022/12/27 06:48:03;;;;;;;14.50;2.60;;;5.20;99.90;;;;;;5037638;28;20176;-77
2022/12/27 06:50:29;;;;;;;14.82;2.70;;;5.20;99.90;;;;;;5059147;28;20184;-77
2022/12/27 06:52:54;;;;;;;11.52;2.45;;;5.20;99.90;;;;;;5030533;28;20702;-75
2022/12/27 06:55:20;;;;;;;16.40;2.78;;;5.20;99.90;;;;;;5026354;28;20640;-81
2022/12/27 06:57:46;;;;;;;18.63;3.17;;;5.20;99.90;;;;;;5031733;28;20195;-76
2022/12/27 07:00:12;;;;;;;15.55;2.40;;;5.20;99.90;;;;;;5030811;28;20202;-78
2022/12/27 07:02:39;;;;;;;14.25;2.80;;;5.20;99.90;;;;;;5032293;28;20255;-76
2022/12/27 07:05:05;;;;;;;11.02;2.33;;;5.10;99.90;;;;;;5034280;28;20190;-76
2022/12/27 07:07:31;;;;;;;21.92;3.00;;;5.10;99.90;;;;;;5020360;28;20199;-76
2022/12/27 07:09:57;;;;;;;16.73;2.70;;;5.10;99.90;;;;;;5023223;28;20648;-75
2022/12/27 07:12:23;;;;;;;20.98;2.67;;;5.10;99.90;;;;;;5039006;28;20249;-76
2022/12/27 07:14:49;;;;;;;10.38;2.70;;;5.10;99.90;;;;;;5028200;28;20259;-76
2022/12/27 07:17:15;;;;;;;15.23;2.63;;;5.10;99.90;;;;;;5024956;28;20175;-78
2022/12/27 07:19:40;;;;;;;11.27;2.15;;;5.10;99.90;;;;;;5028591;28;20180;-75
2022/12/27 07:22:06;;;;;;;18.85;2.67;;;5.10;99.90;;;;;;5025033;28;20188;-74
2022/12/27 07:24:32;;;;;;;10.70;2.20;;;5.00;99.90;;;;;;5027830;28;20227;-75
2022/12/27 07:26:59;;;;;;;17.00;2.55;;;5.10;99.90;;;;;;5025052;28;20176;-78
2022/12/27 07:29:26;;;;;;;17.40;2.80;;;5.00;99.90;;;;;;5026104;28;20261;-75
2022/12/27 07:31:52;;;;;;;10.98;2.53;;;5.00;99.90;;;;;;5016564;28;20177;-75
2022/12/27 07:34:17;;;;;;;14.77;2.55;;;5.00;99.90;;;;;;5024498;28;20798;-74
2022/12/27 07:36:43;;;;;;;9.25;2.20;;;5.10;99.90;;;;;;5017793;28;20192;-75
2022/12/27 07:39:09;;;;;;;15.02;2.60;;;5.00;99.90;;;;;;5024924;28;20183;-75
2022/12/27 07:41:36;;;;;;;17.42;2.97;;;5.00;99.90;;;;;;5021653;28;20184;-75
2022/12/27 07:44:02;;;;;;;9.95;2.53;;;5.00;99.90;;;;;;5030748;28;20180;-76
2022/12/27 07:46:28;;;;;;;9.05;2.58;;;5.00;99.90;;;;;;5022938;28;20180;-76
2022/12/27 07:48:56;;;;;;;10.95;2.63;;;5.10;99.90;;;;;;5034458;28;20191;-75
2022/12/27 07:51:23;;;;;;;10.13;2.40;;;5.10;99.90;;;;;;5028493;28;20188;-75
2022/12/27 07:53:50;;;;;;;15.45;2.45;;;5.10;99.90;;;;;;5023344;28;20208;-75
2022/12/27 07:56:19;;;;;;;14.38;2.45;;;5.10;99.90;;;;;;5028528;28;20271;-77
2022/12/27 07:58:47;;;;;;;10.45;2.30;;;5.10;99.90;;;;;;5028372;28;20184;-76
2022/12/27 08:01:14;;;;;;;11.93;2.92;;;5.10;99.90;;;;;;5032691;28;20230;-74
2022/12/27 08:03:40;;;;;;;15.77;2.53;;;5.10;99.90;;;;;;5026191;28;20252;-77
2022/12/27 08:06:07;;;;;;;15.48;3.00;;;5.10;99.90;;;;;;5038516;28;20211;-75
2022/12/27 08:08:41;;;;;;;17.80;3.30;;;5.10;99.90;;;;;;5032153;28;20186;-84
2022/12/27 08:11:08;;;;;;;14.02;3.90;;;5.10;99.90;;;;;;5034675;28;20202;-75
2022/12/27 08:13:35;;;;;;;10.77;3.50;;;5.10;99.90;;;;;;5028152;28;20235;-77
2022/12/27 08:16:01;;;;;;;21.48;4.00;;;5.10;99.90;;;;;;5029861;28;20180;-75
2022/12/27 08:18:27;;;;;;;13.85;3.03;;;5.10;99.90;;;;;;5029281;28;20250;-75
2022/12/27 08:20:53;;;;;;;18.00;2.95;;;5.10;99.90;;;;;;5024190;28;20207;-78
2022/12/27 08:23:19;;;;;;;15.38;2.67;;;5.20;99.90;;;;;;5024466;28;20211;-82
2022/12/27 08:25:46;;;;;;;20.42;3.00;;;5.20;99.90;;;;;;5032089;28;20203;-79
2022/12/27 08:28:14;;;;;;;13.05;2.67;;;5.20;99.90;;;;;;5032815;28;20551;-76
2022/12/27 08:30:42;;;;;;;21.25;3.50;;;5.20;99.90;;;;;;5008783;28;20196;-79
2022/12/27 08:33:09;;;;;;;13.43;2.92;;;5.20;99.90;;;;;;5027585;28;20208;-75
2022/12/27 08:35:44;;;;;;;13.55;2.70;;;5.20;99.90;;;;;;5031513;28;20203;-77
2022/12/27 08:38:10;;;;;;;10.18;2.72;;;5.30;99.90;;;;;;5033502;28;20267;-75
2022/12/27 08:40:41;;;;;;;25.60;3.33;;;5.30;99.90;;;;;;5031547;28;20601;-75
2022/12/27 08:43:08;;;;;;;17.77;3.08;;;5.30;99.90;;;;;;5030586;28;20631;-75
2022/12/27 08:45:34;;;;;;;19.38;3.85;;;5.40;99.90;;;;;;5024036;28;20204;-76
2022/12/27 08:48:01;;;;;;;14.77;3.17;;;5.40;99.90;;;;;;5051893;28;20191;-75
2022/12/27 08:50:28;;;;;;;17.88;2.83;;;5.40;99.90;;;;;;5030337;28;20180;-77
2022/12/27 08:52:58;;;;;;;21.30;2.95;;;5.50;99.90;;;;;;5046795;28;20204;-76
2022/12/27 08:55:26;;;;;;;17.10;3.00;;;5.50;99.90;;;;;;5042442;28;20206;-76
2022/12/27 08:57:56;;;;;;;18.83;3.15;;;5.60;99.90;;;;;;5028183;28;20731;-75
2022/12/27 09:00:22;;;;;;;20.98;3.17;;;5.70;99.90;;;;;;5044518;28;20655;-76
2022/12/27 09:02:48;;;;;;;12.90;2.75;;;5.70;99.90;;;;;;5034296;28;20318;-75
2022/12/27 09:05:14;;;;;;;19.00;2.85;;;5.80;99.90;;;;;;5029106;28;20261;-81
2022/12/27 09:07:40;;;;;;;15.85;3.00;;;6.00;99.90;;;;;;5025608;28;20216;-77
2022/12/27 09:10:06;;;;;;;16.83;2.90;;;6.20;99.90;;;;;;5029981;28;20207;-76
2022/12/27 09:12:33;;;;;;;19.02;3.03;;;6.40;99.90;;;;;;5029004;28;20197;-76
2022/12/27 09:14:58;;;;;;;15.52;2.97;;;6.70;99.90;;;;;;5016964;28;20214;-75
2022/12/27 09:17:24;;;;;;;13.00;2.83;;;7.00;99.90;;;;;;5031476;28;20220;-76
2022/12/27 09:19:50;;;;;;;17.85;3.08;;;7.30;99.90;;;;;;5060255;28;20184;-75
2022/12/27 09:22:16;;;;;;;12.00;2.92;;;7.50;99.90;;;;;;5034323;28;20611;-75
2022/12/27 09:24:42;;;;;;;14.85;3.22;;;7.80;99.90;;;;;;5043268;28;20179;-75
2022/12/27 09:27:07;;;;;;;12.65;2.70;;;8.10;99.90;;;;;;5061968;28;20179;-75
2022/12/27 09:29:33;;;;;;;11.75;2.72;;;8.40;99.90;;;;;;5031499;28;20267;-75
2022/12/27 09:31:59;;;;;;;15.10;3.22;;;8.60;99.90;;;;;;5032671;28;20180;-75
2022/12/27 09:34:25;;;;;;;11.73;2.78;;;8.80;99.90;;;;;;5031520;28;20654;-75
2022/12/27 09:36:51;;;;;;;12.30;3.03;;;9.00;99.90;;;;;;5037214;28;20283;-75
2022/12/27 09:39:17;;;;;;;17.17;2.53;;;9.20;99.90;;;;;;5024101;28;20195;-75
2022/12/27 09:41:53;;;;;;;13.50;3.15;;;9.30;99.90;;;;;;5023057;28;20195;-75
2022/12/27 09:44:44;;;;;;;14.48;3.28;;;9.50;99.90;;;;;;5017640;28;20199;-74
2022/12/27 09:47:16;;;;;;;11.18;2.70;;;9.60;99.90;;;;;;5025772;28;20175;-75
2022/12/27 09:49:51;;;;;;;14.40;3.08;;;9.80;99.90;;;;;;5032007;28;20644;-75
2022/12/27 09:52:36;;;;;;;14.75;3.10;;;9.80;99.90;;;;;;5021616;28;20916;-79
2022/12/27 09:55:20;;;;;;;9.98;2.85;;;10.00;99.90;;;;;;5016873;28;20238;-79
2022/12/27 09:57:46;;;;;;;12.27;2.97;;;10.10;99.90;;;;;;5026158;28;20275;-77
2022/12/27 10:00:23;;;;;;;11.95;2.90;;;10.20;99.90;;;;;;5025307;28;20652;-75
2022/12/27 10:02:49;;;;;;;12.07;3.40;;;10.30;99.90;;;;;;5025327;28;20238;-76
2022/12/27 10:05:30;;;;;;;12.13;3.53;;;10.30;99.90;;;;;;5031941;28;20180;-78
2022/12/27 10:08:28;;;;;;;9.77;2.50;;;10.20;99.90;;;;;;5039555;28;20391;-76
2022/12/27 10:11:36;;;;;;;13.00;2.88;;;10.10;99.90;;;;;;5032204;28;20210;-74
2022/12/27 10:14:47;;;;;;;15.68;3.50;;;10.20;99.90;;;;;;5019406;28;20246;-76
2022/12/27 10:17:40;;;;;;;12.85;3.03;;;10.40;99.90;;;;;;5030399;28;20184;-76
2022/12/27 10:20:29;;;;;;;18.85;3.10;;;10.60;99.90;;;;;;5021644;28;20341;-75
2022/12/27 10:23:04;;;;;;;8.65;2.10;;;10.80;99.90;;;;;;5026749;28;20194;-79
2022/12/27 10:25:32;;;;;;;12.40;2.83;;;10.90;99.90;;;;;;5041090;28;20225;-76
2022/12/27 10:28:00;;;;;;;17.88;3.38;;;11.10;99.90;;;;;;5029358;28;20621;-79
2022/12/27 10:30:29;;;;;;;12.38;2.83;;;11.20;99.90;;;;;;5032277;28;20271;-75
2022/12/27 10:32:55;;;;;;;12.70;2.53;;;11.30;99.90;;;;;;5020219;28;20656;-77
2022/12/27 10:35:23;;;;;;;11.02;2.90;;;11.30;99.90;;;;;;5031216;28;20241;-77
2022/12/27 10:37:49;;;;;;;11.23;2.70;;;11.50;99.90;;;;;;5032387;28;20289;-74
2022/12/27 10:40:22;;;;;;;9.43;2.95;;;11.50;99.90;;;;;;5026637;28;20183;-74
2022/12/27 10:43:03;;;;;;;8.88;2.33;;;11.60;99.90;;;;;;5023322;28;20714;-77
2022/12/27 10:45:38;;;;;;;11.93;2.50;;;11.60;99.90;;;;;;5015671;28;20576;-74
2022/12/27 10:48:19;;;;;;;14.77;2.85;;;11.50;99.90;;;;;;5016748;28;20176;-83
2022/12/27 10:51:00;;;;;;;12.27;2.80;;;11.40;99.90;;;;;;5025444;28;20192;-75
2022/12/27 10:53:28;;;;;;;17.20;3.17;;;11.40;99.90;;;;;;5017205;28;20207;-80
2022/12/27 10:56:06;;;;;;;14.25;2.40;;;11.30;99.90;;;;;;5023348;28;20192;-75
2022/12/27 10:58:42;;;;;;;11.27;2.55;;;11.10;99.90;;;;;;5061924;28;20701;-73
2022/12/27 11:01:23;;;;;;;14.65;2.85;;;10.90;99.90;;;;;;5030074;28;20187;-73
2022/12/27 11:03:50;;;;;;;12.18;2.72;;;10.80;99.90;;;;;;5031217;28;20349;-74
2022/12/27 11:06:18;;;;;;;16.70;3.20;;;10.70;99.90;;;;;;5017957;28;20207;-74
2022/12/27 11:08:44;;;;;;;11.57;2.55;;;10.70;99.90;;;;;;5031756;28;20180;-75
2022/12/27 11:11:24;;;;;;;10.60;2.67;;;10.80;99.90;;;;;;5046669;28;20546;-77
2022/12/27 11:13:51;;;;;;;17.00;2.83;;;11.00;99.90;;;;;;5030915;28;20199;-78
2022/12/27 11:16:22;;;;;;;11.00;2.85;;;11.20;99.90;;;;;;5016039;28;20733;-81
2022/12/27 11:18:53;;;;;;;9.65;2.47;;;11.50;99.90;;;;;;5026634;28;20183;-73
2022/12/27 11:21:19;;;;;;;12.10;2.45;;;11.60;99.90;;;;;;5031408;28;20259;-74
2022/12/27 11:23:52;;;;;;;13.45;3.00;;;11.70;99.90;;;;;;5019890;28;20181;-75
2022/12/27 11:26:32;;;;;;;13.30;2.67;;;11.80;99.90;;;;;;5031112;28;20256;-73
2022/12/27 11:29:01;;;;;;;11.80;2.70;;;11.90;99.90;;;;;;5022664;28;20249;-78
2022/12/27 11:31:40;;;;;;;10.02;2.55;;;11.90;99.90;;;;;;5016761;28;20177;-73
2022/12/27 11:34:29;;;;;;;13.48;2.47;;;11.80;99.90;;;;;;5033437;28;20196;-77
2022/12/27 11:37:09;;;;;;;8.70;2.40;;;11.80;99.90;;;;;;5029878;28;20183;-74
2022/12/27 11:39:50;;;;;;;8.27;2.05;;;11.70;99.90;;;;;;5025992;28;20671;-75
2022/12/27 11:42:19;;;;;;;10.60;2.42;;;11.60;99.90;;;;;;5029315;28;20211;-75
2022/12/27 11:45:01;;;;;;;13.68;2.45;;;11.40;99.90;;;;;;5035148;28;20191;-74
2022/12/27 11:47:55;;;;;;;10.85;2.58;;;11.20;99.90;;;;;;5036359;28;20190;-76
2022/12/27 11:50:26;;;;;;;10.77;2.58;;;11.10;99.90;;;;;;5026614;28;20195;-77
2022/12/27 11:53:19;;;;;;;13.80;2.28;;;11.20;99.90;;;;;;5032014;28;20667;-74
2022/12/27 11:56:10;;;;;;;10.38;2.60;;;11.20;99.90;;;;;;5030929;28;20674;-74
2022/12/27 11:59:24;;;;;;;10.43;2.38;;;11.30;99.90;;;;;;5035784;28;20194;-74
2022/12/27 12:02:27;;;;;;;10.48;2.75;;;11.50;99.90;;;;;;5002713;28;20212;-75
2022/12/27 12:04:55;;;;;;;16.50;2.67;;;11.60;99.90;;;;;;5031739;28;20584;-74
2022/12/27 12:07:49;;;;;;;14.85;2.40;;;11.80;99.90;;;;;;5035958;28;20210;-75
2022/12/27 12:10:51;;;;;;;11.45;2.38;;;11.90;99.90;;;;;;5034032;28;20230;-74
2022/12/27 12:13:58;;;;;;;13.38;2.60;;;12.00;99.90;;;;;;5016943;28;20223;-75
2022/12/27 12:16:54;;;;;;;11.70;2.30;;;12.00;99.90;;;;;;5024827;28;20184;-78
2022/12/27 12:19:57;;;;;;;16.08;2.65;;;12.10;99.90;;;;;;5024612;28;20176;-75
2022/12/27 12:22:35;;;;;;;10.57;2.53;;;12.00;99.90;;;;;;5015665;28;20181;-75
2022/12/27 12:25:17;;;;;;;8.85;2.42;;;12.00;99.90;;;;;;5022895;28;20267;-74
2022/12/27 12:28:14;;;;;;;13.25;2.83;;;12.10;99.90;;;;;;5015863;28;20233;-75
2022/12/27 12:31:01;;;;;;;12.88;2.63;;;12.10;99.90;;;;;;5035659;28;20198;-78
2022/12/27 12:33:38;;;;;;;13.68;2.85;;;12.10;99.90;;;;;;5016141;28;20204;-75
2022/12/27 12:36:26;;;;;;;9.43;2.85;;;12.10;99.90;;;;;;5022780;28;20251;-78
2022/12/27 12:39:22;;;;;;;9.40;2.45;;;12.10;99.90;;;;;;5026325;28;20628;-75
2022/12/27 12:42:23;;;;;;;16.42;2.72;;;12.10;99.90;;;;;;5035305;28;20587;-75
2022/12/27 12:45:15;;;;;;;17.90;2.53;;;12.10;99.90;;;;;;5022239;28;20191;-75
2022/12/27 12:47:54;;;;;;;15.02;2.75;;;12.00;99.90;;;;;;5034727;28;20192;-75
2022/12/27 12:50:43;;;;;;;11.15;2.80;;;11.90;99.90;;;;;;5033045;28;20215;-75
2022/12/27 12:53:45;;;;;;;8.45;2.40;;;11.80;99.90;;;;;;5024727;28;20196;-75
2022/12/27 12:56:31;;;;;;;10.63;2.53;;;11.60;99.90;;;;;;5025726;28;20227;-75
2022/12/27 12:59:06;;;;;;;12.80;2.50;;;11.40;99.90;;;;;;5029462;28;20230;-73
2022/12/27 13:01:51;;;;;;;9.80;2.28;;;11.20;99.90;;;;;;5030370;28;20621;-76
2022/12/27 13:04:17;;;;;;;10.10;2.20;;;11.00;99.90;;;;;;5032567;28;20160;-75
2022/12/27 13:07:13;;;;;;;13.75;2.50;;;10.90;99.90;;;;;;5037537;28;20183;-75
2022/12/27 13:09:47;;;;;;;11.73;2.78;;;10.70;99.90;;;;;;5033981;28;20282;-78
2022/12/27 13:12:38;;;;;;;11.70;2.92;;;10.60;99.90;;;;;;5032219;28;20175;-77
2022/12/27 13:15:20;;;;;;;12.60;3.20;;;10.50;99.90;;;;;;5039880;28;20210;-76
2022/12/27 13:18:17;;;;;;;10.63;2.92;;;10.30;99.90;;;;;;5044620;28;20609;-76
2022/12/27 13:20:55;;;;;;;13.00;3.22;;;10.30;99.90;;;;;;5033795;28;20238;-75
2022/12/27 13:23:36;;;;;;;13.27;3.38;;;10.20;99.90;;;;;;5033183;28;20203;-76
2022/12/27 13:26:20;;;;;;;15.05;3.97;;;10.10;99.90;;;;;;5034798;28;20183;-74
2022/12/27 13:28:58;;;;;;;13.93;3.97;;;10.10;99.90;;;;;;5033549;28;20184;-77
2022/12/27 13:31:34;;;;;;;17.63;3.28;;;10.00;99.90;;;;;;5018640;28;20184;-75
2022/12/27 13:34:37;;;;;;;16.15;3.90;;;9.90;99.90;;;;;;5013930;28;20285;-78
2022/12/27 13:37:21;;;;;;;13.20;4.45;;;9.80;99.90;;;;;;5014758;28;20176;-75
2022/12/27 13:40:02;;;;;;;17.77;4.47;;;9.70;99.90;;;;;;5018347;28;20179;-76
2022/12/27 13:42:59;;;;;;;14.38;3.80;;;9.60;99.90;;;;;;5032636;28;20184;-75
2022/12/27 13:45:58;;;;;;;12.10;2.97;;;9.50;99.90;;;;;;5032147;28;20530;-75
2022/12/27 13:48:49;;;;;;;12.13;3.08;;;9.40;99.90;;;;;;5031740;28;20226;-76
2022/12/27 13:51:24;;;;;;;10.27;2.60;;;9.40;99.90;;;;;;5030354;28;20234;-75
2022/12/27 13:54:20;;;;;;;10.77;2.78;;;9.30;99.90;;;;;;5048959;28;20196;-75
2022/12/27 13:56:52;;;;;;;13.02;2.70;;;9.20;99.90;;;;;;5029461;28;20219;-75
2022/12/27 13:59:32;;;;;;;8.80;2.70;;;9.10;99.90;;;;;;5031263;28;20218;-75
2022/12/27 14:02:35;;;;;;;15.27;2.80;;;9.10;99.90;;;;;;5029082;28;20216;-76
2022/12/27 14:05:01;;;;;;;9.43;2.80;;;9.00;99.90;;;;;;5026464;28;20183;-74
2022/12/27 14:07:54;;;;;;;11.77;2.88;;;9.00;99.90;;;;;;5032726;28;20188;-79
2022/12/27 14:10:40;;;;;;;15.40;2.90;;;9.00;99.90;;;;;;5047137;28;20177;-75
2022/12/27 14:13:08;;;;;;;12.43;3.05;;;9.00;99.90;;;;;;5033450;28;20192;-75
2022/12/27 14:15:39;;;;;;;13.75;3.22;;;8.90;99.90;;;;;;5026016;28;20259;-79
2022/12/27 14:18:23;;;;;;;10.35;3.17;;;8.90;99.90;;;;;;5031529;28;20176;-75
2022/12/27 14:20:54;;;;;;;12.98;3.30;;;8.80;99.90;;;;;;5032275;28;20184;-76
2022/12/27 14:23:32;;;;;;;11.30;3.67;;;8.80;99.90;;;;;;5032930;28;20667;-77
2022/12/27 14:26:16;;;;;;;12.40;3.20;;;8.80;99.90;;;;;;5064315;28;20695;-76
2022/12/27 14:29:24;;;;;;;11.55;3.03;;;8.80;99.90;;;;;;5032129;28;20258;-77
2022/12/27 14:32:27;;;;;;;10.93;3.15;;;8.70;99.90;;;;;;5026958;28;20272;-76
2022/12/27 14:35:22;;;;;;;21.00;4.22;;;8.70;99.90;;;;;;5022551;28;20561;-76
2022/12/27 14:38:23;;;;;;;17.60;4.00;;;8.70;99.90;;;;;;5004738;28;20242;-75
2022/12/27 14:41:19;;;;;;;15.32;4.55;;;8.70;99.90;;;;;;4982279;28;20184;-79
2022/12/27 14:44:30;;;;;;;12.75;4.22;;;8.70;99.90;;;;;;5024477;28;20184;-75
2022/12/27 14:47:33;;;;;;;13.27;3.92;;;8.70;99.90;;;;;;5030754;28;20189;-75
2022/12/27 14:50:17;;;;;;;15.32;4.47;;;8.60;99.90;;;;;;5020396;28;20194;-75
2022/12/27 14:53:11;;;;;;;11.95;4.15;;;8.60;99.90;;;;;;5018127;28;20250;-77
2022/12/27 14:55:52;;;;;;;12.13;4.20;;;8.60;99.90;;;;;;5025718;28;20177;-75
2022/12/27 14:58:42;;;;;;;13.52;4.63;;;8.60;99.90;;;;;;5022198;28;20194;-75
2022/12/27 15:02:03;;;;;;;12.20;4.28;;;8.50;99.90;;;;;;5029714;28;20540;-75